Aeroporto :
LOGIN :

Iscrizione | Disclaimer

   EN    FR    IT 

 










Sommario :    VFR   VFR Marginale   IFR   IFR Intensivo   IFR Molto Intensivo
Visibilità : 
Base nubi : 
>= 8 km
>= 3000ft
5 / 8 km
1000 / 3000 ft
1500m / 5 km
500 / 1000 ft
800 / 1500m
200 / 500 ft
< 800m
< 200 ft
Simboli :   Temporali  Nebbia  Neve Forte  Precipitazioni Forti  Vento > 20 kt
SIGMETs :   Varie  Temporali  Ghiacco  Turbolenza  Onda orograficha  Ceneri Vulcaniche







- Altitudine del aeroporto : 1455 ft


ETIH - Hohenfels Army Air Field

ULTIMO METAR :
  • 201409Z AUTO 04003KT 3000 +RA BR SCT005 BKN012 14/14 A2958 RMK AO2 CIG 012V050 BKN V SCT SLP015 $

METARs OBSOLETI :
  • 201358Z AUTO 29003KT 3000 +RA BR FEW015 FEW037 OVC049 15/15 A2958 RMK AO2 VIS 3000V6000 SLP015 $
  • 201334Z AUTO 26003KT 6000 +RA BR FEW013 SCT020 SCT029 BKN036 OVC045 14/14 A2958 RMK AO2 SLP015 $
  • 201311Z AUTO 28005KT 9999 -RA FEW010 FEW016 SCT022 BKN029 BKN043 OVC055 15/15 A2959 RMK AO2 CIG 029V043 BKN029 V SCT SLP016 $
  • 201256Z AUTO 29005KT 8000 RA BR FEW012 SCT044 BKN060 15/15 A2959 RMK AO2 SLP016 P0003 T01530151 $
  • 201215Z AUTO 00000KT 9999 -RA SCT022 BKN031 OVC050 15/15 A2959 RMK AO2 SLP018 $
  • 201156Z AUTO 05004KT 9999 -RA BKN024 16/15 A2959 RMK AO2 RAB16 CIG 024V030 SLP016 P0000 60000 T01600154 10179 20145 50002 $
  • 201138Z AUTO 07003KT 9999 -RA SCT025 SCT038 BKN050 OVC060 16/14 A2959 RMK AO2 RAB16 SLP016 $
  • 201116Z AUTO 36003KT 9999 -RA FEW026 BKN060 17/13 A2959 RMK AO2 RAB16 SLP016 $

Previsioni scadute.
Nessun NOTAM noto per questo aeroporto.
8 SIGMETs conosciuti per la FIR München (EDMM) :
 
Temporali affogati
EDMM SIGMET 9 VALID 201245/201400 EDZF
EDMM MUNCHEN FIR EMBD TS OBS WI N4852 E01133 - N4753 E01154 - N4756 E01024 - N4827 E01029 - N4852 E01133 FL320 MOV S 15KT NC=
Temporali affogati
EDMM SIGMET 7 VALID 201220/201330 EDZF
EDMM MUNCHEN FIR EMBD TS OBS APRX 35NM WID LINE BTN N5036 E01143 - N5147 E01152 TOP FL320 MOV SSW 20KT NC=
Cancellazione del SIGMET 1 
EDMM SIGMET 4 VALID 201326/201330 EDZF
EDMM MUNCHEN FIR CNL SIGMET 1 201220/201330=
Temporali affogati con grandine
EDMM SIGMET 15 VALID 201415/201700 EDZF
EDMM MUNCHEN FIR EMBD TSGR OBS N OF N4930 AND W OF E01145 TOP FL360 MOV SSW 15KT NC=
Cancellazione del SIGMET 1 
EDMM SIGMET 14 VALID 201345/201410 EDZF
EDMM MUNCHEN FIR CNL SIGMET 1 201213/201410=
Cancellazione del SIGMET 5 
EDMM SIGMET 13 VALID 201344/201410 EDZF
EDMM MUNCHEN FIR CNL SIGMET 5 201212/201410=
Temporali affogati
EDMM SIGMET 11 VALID 201325/201430 EDZF
EDMM MUNCHEN FIR EMBD TS OBS APRX 35NM WID LINE BTN N5149 E01119 - N5018 E01112 TOP FL320 MOV SSW 15KT NC=
Temporali affogati
EDMM SIGMET 1 VALID 201220/201330 EDZF
EDMM MUNCHEN FIR EMBD TS OBS APRX 35NM WID LINE BTN N5036 E01143 - N5149 E01151 TOP FL320 MOV SSW 20KT NC=



MetMap, La meteo Aeronautica in un colpo d'occhio ! - Copyright ORBIFLY Dicembre 2007 - Disclaimer

ORBIFLY MET'MAP TEAM :

Programmazione e sviluppo : Alexandra Zaïnal
Concezione e sviluppo : Baudouin d'Aumeries
Co-Programmazione e sviluppo : Marc-Olivier Méhu
Supporto tecnico e logistico : Manuel Goepfert
Aiuto per la traduzione : Arnaldo La Scala

Contatto : metmap@orbifly.com




FONTI E CREDITI :

   NOAA